GMMN/CMN METAR and TAF weather

Enter ICAO airport designator
Station Type Date Time Source
GMMN METAR 2019/10/15 08:30 UTC NOAA

GMMN 150830Z 08004KT 9999 FEW016 17/13 Q1022 NOSIG


Station Type Date Time Source
GMMN Decoded METAR 2019/10/15 08:30 UTC NOAA

Nouasseur, Morocco (GMMN) 33-22N 007-35W 206M
Oct 15, 2019 - 04:30 AM EDT / 2019.10.15 0830 UTC
Wind: from the E (080 degrees) at 5 MPH (4 KT):0
Visibility: greater than 7 mile(s):0
Sky conditions: mostly clear
Temperature: 62 F (17 C)
Dew Point: 55 F (13 C)
Relative Humidity: 77%
Pressure (altimeter): 30.18 in. Hg (1022 hPa)
ob: GMMN 150830Z 08004KT 9999 FEW016 17/13 Q1022 NOSIG
cycle: 8

Station Type Date Time Source
GMMN TAF 2019/10/15 06:18 UTC NOAA

TAF GMMN 150500Z 1506/1612 04002KT CAVOK
BECMG 1506/1510 36008KT 9999 FEW016
TEMPO 1514/1518 36014KT CAVOK

Example: see airport list